createdAt,value
2018-11-20T00:01:51.107Z,5.95
2018-11-20T00:04:39.365Z,6.20
2018-11-20T00:07:30.373Z,6.37
2018-11-20T00:10:18.673Z,6.97
2018-11-20T00:13:09.874Z,8.03
2018-11-20T00:16:15.912Z,7.80
2018-11-20T00:19:12.362Z,7.90
2018-11-20T00:21:59.152Z,7.80
2018-11-20T00:24:45.792Z,8.48
2018-11-20T00:27:42.672Z,8.75
2018-11-20T00:30:45.781Z,7.80
2018-11-20T00:33:34.053Z,8.23
2018-11-20T00:36:20.741Z,8.13
2018-11-20T00:38:56.754Z,8.15
2018-11-20T00:41:50.869Z,8.05
2018-11-20T00:44:32.666Z,7.90
2018-11-20T00:47:26.781Z,7.08
2018-11-20T00:50:06.164Z,7.08
2018-11-20T00:52:59.218Z,5.78
2018-11-20T00:56:20.330Z,6.35
2018-11-20T00:59:17.617Z,6.62
2018-11-20T01:01:57.656Z,6.05
2018-11-20T01:04:44.350Z,8.18
2018-11-20T01:07:33.788Z,6.17
2018-11-20T01:10:19.349Z,6.53
2018-11-20T01:13:13.480Z,6.87
2018-11-20T01:16:00.927Z,6.67
2018-11-20T01:18:47.714Z,6.67
2018-11-20T01:21:44.886Z,6.08
2018-11-20T01:24:31.559Z,6.30
2018-11-20T01:27:15.732Z,5.80
2018-11-20T01:30:02.360Z,6.47
2018-11-20T01:33:02.387Z,6.10
2018-11-20T01:35:48.944Z,6.53
2018-11-20T01:38:44.154Z,5.72
2018-11-20T01:41:31.115Z,7.22
2018-11-20T01:44:17.690Z,6.55
2018-11-20T01:47:11.973Z,6.12
2018-11-20T01:50:09.193Z,6.75
2018-11-20T01:52:55.634Z,6.83
2018-11-20T01:55:44.958Z,5.10
2018-11-20T01:58:36.819Z,5.58
2018-11-20T02:01:23.653Z,5.92
2018-11-20T02:04:06.123Z,5.20
2018-11-20T02:07:00.506Z,4.53
2018-11-20T02:09:51.572Z,4.58
2018-11-20T02:16:23.537Z,5.22
2018-11-20T02:19:09.995Z,4.92
2018-11-20T02:22:08.018Z,5.00
2018-11-20T02:24:55.853Z,6.22
2018-11-20T02:27:46.418Z,6.25
2018-11-20T02:30:42.916Z,5.70
2018-11-20T02:33:28.250Z,6.42
2018-11-20T02:36:21.845Z,6.08
2018-11-20T02:39:24.819Z,5.50
2018-11-20T02:42:15.205Z,6.10
2018-11-20T02:45:11.798Z,7.12
2018-11-20T02:48:17.328Z,7.17
2018-11-20T02:51:03.759Z,6.90
2018-11-20T02:53:54.416Z,6.60
2018-11-20T02:56:31.236Z,7.28
2018-11-20T02:59:17.195Z,5.95
2018-11-20T03:02:11.099Z,6.28
2018-11-20T03:05:07.579Z,6.65
2018-11-20T03:08:01.671Z,6.40
2018-11-20T03:10:52.375Z,6.00
2018-11-20T03:13:40.694Z,7.75
2018-11-20T03:16:28.610Z,6.78
2018-11-20T03:19:15.093Z,7.47
2018-11-20T03:22:02.601Z,7.20
2018-11-20T03:25:05.767Z,7.40
2018-11-20T03:28:06.318Z,7.72
2018-11-20T03:31:02.126Z,7.08
2018-11-20T03:33:44.039Z,7.35
2018-11-20T03:36:25.008Z,7.60
2018-11-20T03:39:08.367Z,7.60
2018-11-20T03:41:58.822Z,7.67
2018-11-20T03:44:49.577Z,8.35
2018-11-20T03:47:43.509Z,8.70
2018-11-20T03:50:29.650Z,9.40
2018-11-20T03:53:32.319Z,7.90
2018-11-20T03:56:20.153Z,7.50
2018-11-20T03:59:09.378Z,7.95
2018-11-20T04:01:54.418Z,7.90
2018-11-20T04:04:40.961Z,8.13
2018-11-20T04:07:27.613Z,8.40
2018-11-20T04:10:06.690Z,8.50
2018-11-20T04:12:54.537Z,8.23
2018-11-20T04:15:46.219Z,9.10
2018-11-20T04:18:39.718Z,8.45
2018-11-20T04:21:25.800Z,8.08
2018-11-20T04:24:19.758Z,10.15
2018-11-20T04:27:05.929Z,8.95
2018-11-20T04:29:53.765Z,8.73
2018-11-20T04:32:43.783Z,8.93
2018-11-20T04:35:32.108Z,9.78
2018-11-20T04:38:22.818Z,7.92
2018-11-20T04:41:13.842Z,13.95
2018-11-20T04:44:11.260Z,11.90
2018-11-20T04:46:50.806Z,12.20
2018-11-20T04:49:50.864Z,13.55
2018-11-20T04:52:41.491Z,13.58
2018-11-20T04:55:24.587Z,17.25
2018-11-20T04:58:03.227Z,16.15
2018-11-20T05:00:43.470Z,16.12
2018-11-20T05:03:30.619Z,12.60
2018-11-20T05:06:21.527Z,9.65
2018-11-20T05:09:05.010Z,11.18
2018-11-20T05:11:47.564Z,11.15
2018-11-20T05:14:44.102Z,18.15
2018-11-20T05:17:32.124Z,10.28
2018-11-20T05:20:18.594Z,10.10
2018-11-20T05:23:05.416Z,10.93
2018-11-20T05:26:08.264Z,9.80
2018-11-20T05:28:54.294Z,9.83
2018-11-20T05:31:46.202Z,9.00
2018-11-20T05:34:31.636Z,9.38
2018-11-20T05:37:09.336Z,8.53
2018-11-20T05:39:46.516Z,9.55
2018-11-20T05:42:36.922Z,8.60
2018-11-20T05:45:23.871Z,6.58
2018-11-20T05:48:23.611Z,7.20
2018-11-20T05:51:10.209Z,6.50
2018-11-20T05:54:07.107Z,7.25
2018-11-20T05:57:06.073Z,7.08
2018-11-20T05:59:45.428Z,7.12
2018-11-20T06:02:31.948Z,7.22
2018-11-20T06:05:14.002Z,7.87
2018-11-20T06:08:07.470Z,7.20
2018-11-20T06:11:12.722Z,6.35
2018-11-20T06:13:58.831Z,6.80
2018-11-20T06:17:01.763Z,6.80
2018-11-20T06:19:52.826Z,6.15
2018-11-20T06:22:40.666Z,6.45
2018-11-20T06:25:44.323Z,6.00
2018-11-20T06:28:28.344Z,6.50
2018-11-20T06:31:14.369Z,6.22
2018-11-20T06:34:00.364Z,6.10
2018-11-20T06:36:57.152Z,7.00
2018-11-20T06:39:50.548Z,7.00
2018-11-20T06:42:56.391Z,6.78
2018-11-20T06:45:44.234Z,6.60
2018-11-20T06:48:51.703Z,6.53
2018-11-20T06:51:38.156Z,6.35
2018-11-20T06:54:25.346Z,7.15
2018-11-20T06:57:15.867Z,7.50
2018-11-20T07:00:03.776Z,7.80
2018-11-20T07:02:50.240Z,8.30
2018-11-20T07:05:41.164Z,9.10
2018-11-20T07:08:29.449Z,9.43
2018-11-20T07:11:10.037Z,9.38
2018-11-20T07:14:37.776Z,9.78
2018-11-20T07:17:23.710Z,9.48
2018-11-20T07:20:12.859Z,9.88
2018-11-20T07:22:51.848Z,10.88
2018-11-20T07:25:57.470Z,9.95
2018-11-20T07:28:43.225Z,11.68
2018-11-20T07:31:29.464Z,12.75
2018-11-20T07:34:23.216Z,10.78
2018-11-20T07:37:10.064Z,12.50
2018-11-20T07:40:06.605Z,11.00
2018-11-20T07:43:06.213Z,11.88
2018-11-20T07:45:55.638Z,11.18
2018-11-20T07:48:46.092Z,12.20
2018-11-20T07:51:32.680Z,9.93
2018-11-20T07:54:19.108Z,7.00
2018-11-20T07:57:18.798Z,6.87
2018-11-20T08:00:06.644Z,7.10
2018-11-20T08:02:52.918Z,7.12
2018-11-20T08:05:58.504Z,7.72
2018-11-20T08:08:50.061Z,9.25
2018-11-20T08:11:40.823Z,8.60
2018-11-20T08:14:26.906Z,6.75
2018-11-20T08:17:20.674Z,7.17
2018-11-20T08:20:07.163Z,6.30
2018-11-20T08:22:57.939Z,7.05
2018-11-20T08:25:44.547Z,7.12
2018-11-20T08:28:30.817Z,6.90
2018-11-20T08:31:17.859Z,6.70
2018-11-20T08:34:08.374Z,6.72
2018-11-20T08:36:56.270Z,6.60
2018-11-20T08:39:49.916Z,4.95
2018-11-20T08:42:37.898Z,7.65
2018-11-20T08:45:24.361Z,8.43
2018-11-20T08:48:18.247Z,6.80
2018-11-20T08:51:04.147Z,6.30
2018-11-20T08:54:00.654Z,8.48
2018-11-20T08:56:57.492Z,7.53
2018-11-20T08:59:44.076Z,7.15
2018-11-20T09:02:32.025Z,6.45
2018-11-20T09:05:34.509Z,5.95
2018-11-20T09:08:22.369Z,5.30
2018-11-20T09:11:10.290Z,5.87
2018-11-20T09:14:03.747Z,4.28
2018-11-20T09:16:54.564Z,5.30
2018-11-20T09:19:54.553Z,4.72
2018-11-20T09:22:53.310Z,5.60
2018-11-20T09:25:42.582Z,4.97
2018-11-20T09:28:28.855Z,5.58
2018-11-20T09:31:15.189Z,5.15
2018-11-20T09:34:06.012Z,4.40
2018-11-20T09:36:52.084Z,3.87
2018-11-20T09:39:26.449Z,4.78
2018-11-20T09:42:13.046Z,4.40
2018-11-20T09:45:14.990Z,5.37
2018-11-20T09:48:06.451Z,5.05
2018-11-20T09:51:12.289Z,5.17
2018-11-20T09:53:53.622Z,4.08
2018-11-20T09:56:39.918Z,4.65
2018-11-20T09:59:36.785Z,4.85
2018-11-20T10:02:25.852Z,4.70
2018-11-20T10:05:12.171Z,4.55
2018-11-20T10:08:09.180Z,4.22
2018-11-20T10:10:59.581Z,4.50
2018-11-20T10:13:50.117Z,4.10
2018-11-20T10:16:36.345Z,4.05
2018-11-20T10:19:22.634Z,4.25
2018-11-20T10:22:08.703Z,3.47
2018-11-20T10:24:56.660Z,3.90
2018-11-20T10:27:56.203Z,4.15
2018-11-20T10:30:37.440Z,3.77
2018-11-20T10:33:23.610Z,3.47
2018-11-20T10:36:07.686Z,3.40
2018-11-20T10:38:56.829Z,3.37
2018-11-20T10:41:47.524Z,3.37
2018-11-20T10:44:53.474Z,3.10
2018-11-20T10:47:37.984Z,3.52
2018-11-20T10:50:31.770Z,3.45
2018-11-20T10:53:37.786Z,3.40
2018-11-20T10:56:40.666Z,3.05
2018-11-20T10:59:34.568Z,3.67
2018-11-20T11:02:20.975Z,4.95
2018-11-20T11:05:07.230Z,4.85
2018-11-20T11:07:53.430Z,5.55
2018-11-20T11:10:48.055Z,4.72
2018-11-20T11:13:48.000Z,3.02
2018-11-20T11:16:34.483Z,3.70
2018-11-20T11:19:28.116Z,4.08
2018-11-20T11:22:18.964Z,2.95
2018-11-20T11:25:05.407Z,3.40
2018-11-20T11:27:51.619Z,3.20
2018-11-20T11:30:57.326Z,3.00
2018-11-20T11:33:39.774Z,3.45
2018-11-20T11:36:28.212Z,3.22
2018-11-20T11:39:16.584Z,3.17
2018-11-20T11:42:04.479Z,3.00
2018-11-20T11:44:58.419Z,4.80
2018-11-20T11:47:44.909Z,4.10
2018-11-20T11:50:35.506Z,3.67
2018-11-20T11:53:25.018Z,3.50
2018-11-20T11:56:11.515Z,3.55
2018-11-20T11:58:54.132Z,3.30
2018-11-20T12:04:43.684Z,3.72
2018-11-20T12:07:24.745Z,3.75
2018-11-20T12:10:11.171Z,3.52
2018-11-20T12:12:53.162Z,3.25
2018-11-20T12:15:39.330Z,3.20
2018-11-20T12:18:25.630Z,3.65
2018-11-20T12:21:16.380Z,3.42
2018-11-20T12:24:14.484Z,6.20
2018-11-20T12:26:58.622Z,3.62
2018-11-20T12:29:45.669Z,4.10
2018-11-20T12:32:27.903Z,3.95
2018-11-20T12:35:15.615Z,5.35
2018-11-20T12:37:53.283Z,3.05
2018-11-20T12:40:53.226Z,7.65
2018-11-20T12:43:39.528Z,3.20
2018-11-20T12:46:39.232Z,3.45
2018-11-20T12:49:25.772Z,3.47
2018-11-20T12:52:13.111Z,4.05
2018-11-20T12:55:31.201Z,4.30
2018-11-20T12:58:17.260Z,3.50
2018-11-20T13:01:05.219Z,4.00
2018-11-20T13:03:57.452Z,3.50
2018-11-20T13:06:38.430Z,4.05
2018-11-20T13:09:26.186Z,3.58
2018-11-20T13:12:12.252Z,4.22
2018-11-20T13:15:02.926Z,4.20
2018-11-20T13:17:53.448Z,5.28
2018-11-20T13:20:54.383Z,4.75
2018-11-20T13:23:50.929Z,3.75
2018-11-20T13:26:36.796Z,5.30
2018-11-20T13:29:35.712Z,5.28
2018-11-20T13:32:26.371Z,5.10
2018-11-20T13:35:23.259Z,4.12
2018-11-20T13:38:22.739Z,5.05
2018-11-20T13:41:39.925Z,5.40
2018-11-20T13:44:25.730Z,5.55
2018-11-20T13:47:12.071Z,7.65
2018-11-20T13:49:54.089Z,5.33
2018-11-20T13:52:40.318Z,5.65
2018-11-20T13:55:31.920Z,5.12
2018-11-20T13:58:19.515Z,5.35
2018-11-20T14:01:10.334Z,5.12
2018-11-20T14:04:06.901Z,6.78
2018-11-20T14:06:53.202Z,6.50
2018-11-20T14:09:39.190Z,6.45
2018-11-20T14:12:33.201Z,5.85
2018-11-20T14:15:30.117Z,5.97
2018-11-20T14:18:16.805Z,6.65
2018-11-20T14:21:03.129Z,6.70
2018-11-20T14:24:05.989Z,7.35
2018-11-20T14:26:52.171Z,6.62
2018-11-20T14:29:40.109Z,6.80
2018-11-20T14:32:31.616Z,7.58
2018-11-20T14:35:17.917Z,5.83
2018-11-20T14:38:17.725Z,6.80
2018-11-20T14:41:17.660Z,7.90
2018-11-20T14:44:04.111Z,8.60
2018-11-20T14:46:50.575Z,7.67
2018-11-20T14:49:41.120Z,8.23
2018-11-20T14:52:28.575Z,8.40
2018-11-20T14:55:23.417Z,10.68
2018-11-20T14:58:09.698Z,8.80
2018-11-20T15:00:48.169Z,10.25
2018-11-20T15:03:54.158Z,10.98
2018-11-20T15:06:39.750Z,13.10
2018-11-20T15:09:23.507Z,13.60
2018-11-20T15:12:17.316Z,11.70
2018-11-20T15:15:03.865Z,10.90
2018-11-20T15:17:50.132Z,10.88
2018-11-20T15:20:48.257Z,12.85
2018-11-20T15:23:25.630Z,12.93
2018-11-20T15:26:13.639Z,12.88
2018-11-20T15:29:05.193Z,11.57
2018-11-20T15:32:05.022Z,11.55
2018-11-20T15:34:51.330Z,12.23
2018-11-20T15:37:45.335Z,12.25
2018-11-20T15:40:39.262Z,12.47
2018-11-20T15:43:23.894Z,11.48
2018-11-20T15:46:29.590Z,11.65
2018-11-20T15:49:17.535Z,11.70
2018-11-20T15:52:03.599Z,11.95
2018-11-20T15:54:52.263Z,11.10
2018-11-20T15:57:39.297Z,11.22
2018-11-20T16:00:39.965Z,11.78
2018-11-20T16:03:27.825Z,11.48
2018-11-20T16:06:27.599Z,12.07
2018-11-20T16:09:13.563Z,10.60
2018-11-20T16:12:07.406Z,11.45
2018-11-20T16:14:53.630Z,12.20
2018-11-20T16:17:33.218Z,12.23
2018-11-20T16:20:19.783Z,11.63
2018-11-20T16:23:06.107Z,11.83
2018-11-20T16:25:56.764Z,10.75
2018-11-20T16:28:43.288Z,11.45
2018-11-20T16:31:29.608Z,11.15
2018-11-20T16:34:15.776Z,13.55
2018-11-20T16:37:03.622Z,13.38
2018-11-20T16:39:51.061Z,14.68
2018-11-20T16:42:37.243Z,13.18
2018-11-20T16:45:24.979Z,12.20
2018-11-20T16:48:11.473Z,12.23
2018-11-20T16:51:08.277Z,12.88
2018-11-20T16:53:54.753Z,11.50
2018-11-20T16:56:45.661Z,12.95
2018-11-20T16:59:36.508Z,10.93
2018-11-20T17:02:27.917Z,11.28
2018-11-20T17:05:15.769Z,11.35
2018-11-20T17:08:14.328Z,12.47
2018-11-20T17:10:57.653Z,10.32
2018-11-20T17:13:46.128Z,12.20
2018-11-20T17:16:32.323Z,11.43
2018-11-20T17:19:35.065Z,10.10
2018-11-20T17:22:21.437Z,11.18
2018-11-20T17:25:18.399Z,9.28
2018-11-20T17:27:53.275Z,8.30
2018-11-20T17:30:31.602Z,8.15
2018-11-20T17:33:25.261Z,10.35
2018-11-20T17:36:05.842Z,9.78
2018-11-20T17:38:52.272Z,9.93
2018-11-20T17:41:46.196Z,8.40
2018-11-20T17:44:34.041Z,8.68
2018-11-20T17:47:36.726Z,8.03
2018-11-20T17:50:24.093Z,9.80
2018-11-20T17:53:10.596Z,8.08
2018-11-20T17:56:10.128Z,8.80
2018-11-20T17:58:50.109Z,9.83
2018-11-20T18:01:35.655Z,9.83
2018-11-20T18:04:38.660Z,11.28
2018-11-20T18:07:24.849Z,10.98
2018-11-20T18:10:09.954Z,12.73
2018-11-20T18:12:56.309Z,14.05
2018-11-20T18:15:44.248Z,12.05
2018-11-20T18:18:41.110Z,10.90
2018-11-20T18:21:27.222Z,12.25
2018-11-20T18:24:23.219Z,11.12
2018-11-20T18:27:02.395Z,12.33
2018-11-20T18:29:50.384Z,7.67
2018-11-20T18:32:36.697Z,9.58
2018-11-20T18:35:27.480Z,9.45
2018-11-20T18:38:13.786Z,6.80
2018-11-20T18:40:59.994Z,7.08
2018-11-20T18:43:47.995Z,7.22
2018-11-20T18:46:29.892Z,7.35
2018-11-20T18:49:35.759Z,6.90
2018-11-20T18:52:22.194Z,6.35
2018-11-20T18:55:25.299Z,5.70
2018-11-20T18:58:11.393Z,6.95
2018-11-20T19:01:08.599Z,6.70
2018-11-20T19:04:14.545Z,6.20
2018-11-20T19:07:01.097Z,6.00
2018-11-20T19:09:47.508Z,6.78
2018-11-20T19:12:38.131Z,5.42
2018-11-20T19:15:24.892Z,5.60
2018-11-20T19:18:15.887Z,5.55
2018-11-20T19:20:57.433Z,5.47
2018-11-20T19:23:43.898Z,5.67
2018-11-20T19:26:25.625Z,6.28
2018-11-20T19:29:28.524Z,6.33
2018-11-20T19:32:28.071Z,6.22
2018-11-20T19:35:27.748Z,6.25
2018-11-20T19:38:06.580Z,5.75
2018-11-20T19:40:49.260Z,5.58
2018-11-20T19:43:37.110Z,7.47
2018-11-20T19:46:25.038Z,7.42
2018-11-20T19:49:18.793Z,8.18
2018-11-20T19:52:05.238Z,8.60
2018-11-20T19:55:11.071Z,7.47
2018-11-20T19:58:18.085Z,5.65
2018-11-20T20:01:04.331Z,5.05
2018-11-20T20:03:50.460Z,5.15
2018-11-20T20:06:38.307Z,5.20
2018-11-20T20:09:37.379Z,5.33
2018-11-20T20:12:43.192Z,5.20
2018-11-20T20:15:31.173Z,5.30
2018-11-20T20:18:17.368Z,5.15
2018-11-20T20:21:17.465Z,5.78
2018-11-20T20:24:14.454Z,5.00
2018-11-20T20:26:57.017Z,4.75
2018-11-20T20:29:50.698Z,5.45
2018-11-20T20:32:44.047Z,5.83
2018-11-20T20:35:31.636Z,6.08
2018-11-20T20:38:31.352Z,5.97
2018-11-20T20:41:17.437Z,5.35
2018-11-20T20:43:59.842Z,4.78
2018-11-20T20:46:38.748Z,4.72
2018-11-20T20:49:22.673Z,4.83
2018-11-20T20:52:25.483Z,5.00
2018-11-20T20:55:13.325Z,4.72
2018-11-20T20:57:56.222Z,4.65
2018-11-20T21:00:49.975Z,4.55
2018-11-20T21:03:32.771Z,4.85
2018-11-20T21:06:26.316Z,4.92
2018-11-20T21:09:16.735Z,4.80
2018-11-20T21:12:18.001Z,4.40
2018-11-20T21:15:03.927Z,4.08
2018-11-20T21:17:57.726Z,4.37
2018-11-20T21:20:44.113Z,4.50
2018-11-20T21:23:30.171Z,4.35
2018-11-20T21:26:16.082Z,4.50
2018-11-20T21:28:59.419Z,4.60
2018-11-20T21:31:53.215Z,4.00
2018-11-20T21:34:47.203Z,4.50
2018-11-20T21:37:40.519Z,4.72
2018-11-20T21:40:26.775Z,4.30
2018-11-20T21:43:32.255Z,4.05
2018-11-20T21:46:32.060Z,3.77
2018-11-20T21:49:37.575Z,4.67
2018-11-20T21:52:16.982Z,4.80
2018-11-20T21:55:16.450Z,4.67
2018-11-20T21:58:09.961Z,4.28
2018-11-20T22:00:58.473Z,4.67
2018-11-20T22:03:44.701Z,4.55
2018-11-20T22:06:30.612Z,4.40
2018-11-20T22:09:24.141Z,4.72
2018-11-20T22:12:17.507Z,4.70
2018-11-20T22:15:03.619Z,4.45
2018-11-20T22:17:49.839Z,4.42
2018-11-20T22:20:39.437Z,4.53
2018-11-20T22:23:23.180Z,5.10
2018-11-20T22:26:00.486Z,4.95
2018-11-20T22:28:42.618Z,4.80
2018-11-20T22:31:39.194Z,4.30
2018-11-20T22:34:25.626Z,4.83
2018-11-20T22:37:19.032Z,4.90
2018-11-20T22:40:18.880Z,4.55
2018-11-20T22:43:12.364Z,4.62
2018-11-20T22:46:02.782Z,4.80
2018-11-20T22:48:48.979Z,4.60
2018-11-20T22:51:45.258Z,4.40
2018-11-20T22:54:37.806Z,4.67
2018-11-20T22:57:31.504Z,4.92
2018-11-20T23:00:17.603Z,4.92
2018-11-20T23:03:03.594Z,4.78
2018-11-20T23:05:56.691Z,4.58
2018-11-20T23:08:25.403Z,4.78
2018-11-20T23:10:54.118Z,5.15
2018-11-20T23:13:22.943Z,5.35
2018-11-20T23:15:51.654Z,5.00
2018-11-20T23:18:20.399Z,5.20
2018-11-20T23:20:49.150Z,5.87
2018-11-20T23:23:17.866Z,5.97
2018-11-20T23:25:46.587Z,5.60
2018-11-20T23:28:15.371Z,5.15
2018-11-20T23:30:44.087Z,5.90
2018-11-20T23:33:12.871Z,6.30
2018-11-20T23:35:54.181Z,5.92
2018-11-20T23:38:22.896Z,5.92
2018-11-20T23:40:51.853Z,6.25
2018-11-20T23:43:20.675Z,6.33
2018-11-20T23:45:49.459Z,6.53
2018-11-20T23:48:18.172Z,6.17
2018-11-20T23:50:47.003Z,5.85
2018-11-20T23:53:15.716Z,5.95
2018-11-20T23:55:44.419Z,6.20
2018-11-20T23:58:13.204Z,6.78
